createdAt,value
2022-08-04T00:11:22.782Z,14.55
2022-08-04T00:26:29.611Z,12.07
2022-08-04T00:41:56.637Z,12.77
2022-08-04T00:57:34.166Z,13.50
2022-08-04T01:13:01.965Z,10.65
2022-08-04T01:28:28.152Z,11.20
2022-08-04T01:43:38.865Z,11.95
2022-08-04T01:58:43.947Z,12.60
2022-08-04T02:14:07.729Z,11.93
2022-08-04T02:29:18.727Z,14.85
2022-08-04T02:44:24.559Z,16.23
2022-08-04T02:59:32.732Z,15.18
2022-08-04T03:14:52.414Z,15.60
2022-08-04T03:30:03.653Z,15.53
2022-08-04T03:45:23.475Z,21.52
2022-08-04T04:00:27.234Z,17.82
2022-08-04T04:15:39.369Z,20.20
2022-08-04T04:30:50.321Z,17.90
2022-08-04T04:46:16.814Z,20.80
2022-08-04T05:01:49.117Z,18.50
2022-08-04T05:17:03.261Z,15.28
2022-08-04T05:32:11.286Z,14.23
2022-08-04T05:47:22.300Z,17.60
2022-08-04T06:02:29.357Z,14.98
2022-08-04T06:19:58.714Z,12.53
2022-08-04T06:32:51.477Z,15.93
2022-08-04T06:47:59.280Z,10.38
2022-08-04T07:03:04.856Z,9.33
2022-08-04T07:18:09.985Z,13.00
2022-08-04T07:33:18.941Z,11.10
2022-08-04T07:48:26.657Z,10.57
2022-08-04T08:03:31.909Z,14.50
2022-08-04T08:18:37.034Z,8.33
2022-08-04T08:33:42.551Z,6.77
2022-08-04T08:49:10.028Z,6.27
2022-08-04T09:04:26.702Z,5.33
2022-08-04T09:19:38.677Z,5.15
2022-08-04T09:35:01.405Z,5.73
2022-08-04T09:50:19.775Z,6.93
2022-08-04T10:20:54.074Z,4.43
2022-08-04T10:36:03.916Z,6.17
2022-08-04T10:51:11.937Z,3.73
2022-08-04T11:06:18.055Z,3.10
2022-08-04T11:21:28.521Z,3.20
2022-08-04T11:36:39.291Z,6.70
2022-08-04T11:51:46.647Z,2.63
2022-08-04T12:07:15.028Z,6.37
2022-08-04T12:22:04.478Z,3.23
2022-08-04T12:37:32.063Z,8.23
2022-08-04T12:53:03.501Z,4.80
2022-08-04T13:07:54.061Z,2.30
2022-08-04T13:23:21.510Z,4.00
2022-08-04T13:38:26.518Z,3.97
2022-08-04T13:53:35.763Z,2.33
2022-08-04T14:08:55.693Z,3.83
2022-08-04T14:24:01.973Z,5.00
2022-08-04T14:39:07.427Z,4.30
2022-08-04T14:54:18.396Z,5.33
2022-08-04T15:09:22.517Z,4.63
2022-08-04T15:24:27.590Z,7.93
2022-08-04T15:39:50.893Z,3.67
2022-08-04T15:55:16.306Z,7.70
2022-08-04T16:10:36.438Z,5.60
2022-08-04T16:25:48.513Z,4.80
2022-08-04T16:40:55.705Z,7.00
2022-08-04T16:56:11.745Z,10.37
2022-08-04T17:11:17.387Z,20.87
2022-08-04T17:26:40.516Z,6.90
2022-08-04T17:41:38.673Z,9.10
2022-08-04T17:56:52.020Z,6.80
2022-08-04T18:11:56.871Z,8.30
2022-08-04T18:27:06.515Z,10.20
2022-08-04T18:42:11.266Z,14.27
2022-08-04T18:57:32.189Z,6.93
2022-08-04T19:12:29.206Z,6.93
2022-08-04T19:27:38.774Z,12.83
2022-08-04T19:42:42.591Z,6.43
2022-08-04T19:57:49.401Z,8.83
2022-08-04T20:12:55.863Z,7.73
2022-08-04T20:28:01.296Z,11.07
2022-08-04T20:43:06.332Z,12.70
2022-08-04T20:58:14.578Z,11.30
2022-08-04T21:13:21.260Z,7.17
2022-08-04T21:28:27.475Z,9.57
2022-08-04T21:43:34.430Z,13.40
2022-08-04T21:58:40.157Z,10.20
2022-08-04T22:13:52.326Z,5.30
2022-08-04T22:28:53.845Z,6.77
2022-08-04T22:43:58.775Z,7.50
2022-08-04T22:59:03.843Z,10.17
2022-08-04T23:14:08.913Z,6.08
2022-08-04T23:29:13.956Z,5.97
2022-08-04T23:44:24.862Z,8.58
2022-08-04T23:59:52.156Z,8.00
